Etusivu
METAR-TAF:

METAR-TAF

Lentoasemat :

Fornebu

Statfjord B, Norja

Leveyspiiri: 61-12-22N, Pituuspiiri: 1-49-45E, korkeus merenpinnasta: 10 m

Tämänhetkinen sää

Tämä raportti tehtiin 28 minuuttia sitten, kello 11.50 UTC
Tuuli 16 kn luoteesta
Lämpötila 12°C
Kosteus 88%
Ilmanpaine 1008 hPa
Näkyvyys 10 km tai enemmän

METAR: ENFB 181150Z AUTO 32016KT 9999 BKN003/// 12/10 Q1008 W///S3

Aika: 14:18 (12:18 UTC)


TAF: puuttuu

Säähavainnot ja -ennusteet yli 4000 lentoasemalta (METAR- ja TAF-raportit).

Käytössä olevat sääasemat on merkitty karttaan keltaisilla ja punaisilla pisteillä.

Aseta hiiri pisteen päälle nähdäksesi sääaseman nimen.

Klikkaa sitten nähdäksesi säähavainnot ja -ennusteet.

Kartan vaihtaminen: klikkaa mustalla rastilla varustettuja vihreitä pisteitä, niin voit zoomata sisään; viivalla varustettua vihreää pistettä, niin voit zoomata ulos tai vihreitä nuolia, niin pääset viereisille kartoille.


METAR-TAF: